• Join FlightAware (Why Join?)
  • Login
  • US Flag 
08:03AM EDT


 

Airport Tracker/Info


-or-


 

Live Flight TrackerFlight Track Log ✈ AAL963 ✈ 21-Apr-2013 ✈ KDFW - SBGR / GRU

Flight Track Log - Related Links

Times and Time Zones

All times are in EDT time to prevent confusion due to time zone crossing. See the AAL963 flight status page for this flight to view local times or setup timezone preferences in your user account.

Time Position Orientation Groundspeed Altitude Reporting Facility
EDT Latitude Longitude Course Direction KTS MPH feet Rate Location/Type
09:14PM 32.8320 -97.0160 165° South 214 246 2,200  Level FlightAware
09:14PM 32.8080 -97.0090 166° South 232 267 2,800 1,320 Climbing FlightAware
09:15PM 32.7920 -97.0040 165° South 249 287 3,100 1,860 Climbing FlightAware
09:15PM 32.7580 -96.9930 165° South 255 293 4,200 2,280 Climbing FlightAware
09:16PM 32.7280 -96.9830 164° South 257 296 5,200 2,160 Climbing FlightAware
09:16PM 32.6940 -96.9690 161° South 266 306 6,200 2,040 Climbing FlightAware
09:17PM 32.6650 -96.9580 162° South 269 310 7,100 1,800 Climbing FlightAware
09:17PM 32.6300 -96.9450 163° South 283 326 7,900 1,680 Climbing FlightAware
09:17PM 32.6080 -96.9370 163° South 288 331 8,400 1,800 Climbing FlightAware
09:18PM 32.5760 -96.9250 162° South 299 344 9,100 1,920 Climbing FlightAware
09:18PM 32.5150 -96.9020 162° South 308 354 10,700 1,680 Climbing FlightAware
09:19PM 32.4610 -96.8810 162° South 337 388 11,500 1,320 Climbing FlightAware
09:20PM 32.3890 -96.8540 162° South 369 425 12,600 1,440 Climbing FlightAware
09:21PM 32.3200 -96.8290 163° South 397 457 13,600 1,680 Climbing FlightAware
09:21PM 32.2470 -96.8010 162° South 413 475 14,900 1,860 Climbing FlightAware
09:22PM 32.1680 -96.7710 162° South 425 489 16,300 2,040 Climbing FlightAware
09:23PM 32.0900 -96.7410 162° South 435 501 17,800 2,160 Climbing FlightAware
09:23PM 32.0149 -96.7128 162° South 443 510 19,100 1,860 Climbing FlightAware ADS-B
09:24PM 31.9436 -96.6857 162° South 456 525 20,100 1,560 Climbing FlightAware ADS-B
09:24PM 31.8790 -96.6613 162° South 468 539 20,900 1,680 Climbing FlightAware ADS-B
09:25PM 31.8265 -96.6403 161° South 474 545 21,700 1,800 Climbing FlightAware ADS-B
09:25PM 31.8167 -96.6362 160° South 475 547 21,800 1,680 Climbing FlightAware ADS-B
09:25PM 31.7590 -96.6122 161° South 482 555 22,600 1,620 Climbing FlightAware ADS-B
09:25PM 31.7493 -96.6082 161° South 482 555 22,700 1,620 Climbing FlightAware ADS-B
09:26PM 31.6896 -96.5834 161° South 488 562 23,500 1,680 Climbing FlightAware ADS-B
09:26PM 31.6680 -96.5746 161° South 490 564 23,800 1,560 Climbing FlightAware ADS-B
09:26PM 31.6246 -96.5569 161° South 493 567 24,300 1,380 Climbing FlightAware ADS-B
09:27PM 31.5827 -96.5399 161° South 497 572 24,700 1,320 Climbing FlightAware ADS-B
09:27PM 31.5573 -96.5296 161° South 501 577 25,000 1,320 Climbing FlightAware ADS-B
09:27PM 31.5080 -96.5095 161° South 504 580 25,500 1,200 Climbing FlightAware ADS-B
09:27PM 31.4911 -96.5029 162° South 506 582 25,600 1,200 Climbing FlightAware ADS-B
09:28PM 31.4405 -96.4840 162° South 509 586 26,100 1,320 Climbing FlightAware ADS-B
09:28PM 31.4225 -96.4773 162° South 510 587 26,300 1,440 Climbing FlightAware ADS-B
09:28PM 31.3661 -96.4566 163° South 513 590 26,900 1,500 Climbing FlightAware ADS-B
09:28PM 31.3523 -96.4516 163° South 514 592 27,100 1,500 Climbing FlightAware ADS-B
09:29PM 31.2924 -96.4294 162° South 515 593 27,700 1,380 Climbing FlightAware ADS-B
09:29PM 31.2833 -96.4260 162° South 515 593 27,800 1,080 Climbing FlightAware ADS-B
09:29PM 31.2314 -96.4067 162° South 520 598 28,200 1,080 Climbing FlightAware ADS-B
09:29PM 31.2102 -96.3971 159° South 527 606 28,400 1,260 Climbing FlightAware ADS-B
09:29PM 31.1988 -96.3905 154° Southeast 530 610 28,500 1,500 Climbing FlightAware ADS-B
09:30PM 31.1925 -96.3865 151° Southeast 533 613 28,600 1,200 Climbing FlightAware ADS-B
09:30PM 31.1893 -96.3843 150° Southeast 535 616 28,600 840 Level FlightAware ADS-B
09:30PM 31.1779 -96.3759 148° Southeast 538 619 28,700 1,320 Climbing FlightAware ADS-B
09:30PM 31.1702 -96.3696 145° Southeast 540 621 28,800 840 Climbing FlightAware ADS-B
09:30PM 31.1638 -96.3639 143° Southeast 543 625 28,800 960 Level FlightAware ADS-B
09:30PM 31.1469 -96.3465 139° Southeast 549 632 29,000 1,080 Climbing FlightAware ADS-B
09:30PM 31.1435 -96.3426 136° Southeast 550 633 29,000 720 Level FlightAware ADS-B
09:30PM 31.1330 -96.3291 132° Southeast 554 638 29,100 960 Climbing FlightAware ADS-B
09:30PM 31.1241 -96.3159 128° Southeast 557 641 29,200 960 Climbing FlightAware ADS-B
09:30PM 31.1066 -96.2880 126° Southeast 560 644 29,400 960 Climbing FlightAware ADS-B
09:31PM 31.0782 -96.2421 126° Southeast 563 648 29,700 960 Climbing FlightAware ADS-B
09:31PM 31.0602 -96.2127 126° Southeast 564 649 29,900 1,200 Climbing FlightAware ADS-B
09:31PM 31.0327 -96.1675 125° Southeast 564 649 30,300 1,560 Climbing FlightAware ADS-B
09:31PM 31.0143 -96.1374 125° Southeast 562 647 30,700 1,800 Climbing FlightAware ADS-B
09:32PM 30.9875 -96.0933 125° Southeast 560 644 31,200 1,560 Climbing FlightAware ADS-B
09:32PM 30.9692 -96.0634 126° Southeast 558 642 31,500 1,380 Climbing FlightAware ADS-B
09:32PM 30.9421 -96.0192 126° Southeast 557 641 31,900 1,320 Climbing FlightAware ADS-B
09:32PM 30.9238 -95.9896 126° Southeast 556 640 32,200 1,380 Climbing FlightAware ADS-B
09:33PM 30.8971 -95.9465 126° Southeast 553 636 32,600 1,320 Climbing FlightAware ADS-B
09:33PM 30.8774 -95.9147 126° Southeast 552 635 32,900 1,320 Climbing FlightAware ADS-B
09:33PM 30.8515 -95.8730 126° Southeast 550 633 33,300 1,200 Climbing FlightAware ADS-B
09:33PM 30.8328 -95.8428 126° Southeast 550 633 33,500 1,140 Climbing FlightAware ADS-B
09:34PM 30.8055 -95.7989 126° Southeast 546 628 33,900 1,380 Climbing FlightAware ADS-B
09:34PM 30.7882 -95.7711 126° Southeast 545 627 34,200 1,380 Climbing FlightAware ADS-B
09:34PM 30.7609 -95.7272 126° Southeast 541 623 34,600 1,200 Climbing FlightAware ADS-B
09:34PM 30.7435 -95.6992 126° Southeast 540 621 34,800 720 Climbing FlightAware ADS-B
09:35PM 30.7164 -95.6559 126° Southeast 542 624 35,000 360 Climbing FlightAware ADS-B
09:35PM 30.6964 -95.6239 126° Southeast 543 625 35,000  Level FlightAware ADS-B
09:35PM 30.6690 -95.5801 126° Southeast 544 626 35,000  Level FlightAware ADS-B
09:35PM 30.6520 -95.5529 126° Southeast 544 626 35,000  Level FlightAware ADS-B
09:36PM 30.6247 -95.5093 126° Southeast 545 627 35,000  Level FlightAware ADS-B
09:36PM 30.6070 -95.4811 126° Southeast 546 628 35,000  Level FlightAware ADS-B
09:36PM 30.5696 -95.4215 126° Southeast 546 628 35,000  Level FlightAware ADS-B
09:36PM 30.5621 -95.4096 126° Southeast 547 629 35,000  Level FlightAware ADS-B
09:37PM 30.5247 -95.3501 126° Southeast 548 631 35,000  Level FlightAware ADS-B
09:37PM 30.5219 -95.3455 125° Southeast 548 631 35,000  Level FlightAware ADS-B
09:37PM 30.4792 -95.2776 126° Southeast 549 632 35,000  Level FlightAware ADS-B
09:37PM 30.4760 -95.2725 126° Southeast 549 632 35,000  Level FlightAware ADS-B
09:38PM 30.4336 -95.2053 126° Southeast 550 633 35,000  Level FlightAware ADS-B
09:38PM 30.4306 -95.2005 126° Southeast 550 633 35,000  Level FlightAware ADS-B
09:38PM 30.3884 -95.1336 126° Southeast 552 635 35,000  Level FlightAware ADS-B
09:38PM 30.3840 -95.1267 126° Southeast 552 635 35,000  Level FlightAware ADS-B
09:39PM 30.3402 -95.0574 126° Southeast 552 635 35,000  Level FlightAware ADS-B
09:39PM 30.3358 -95.0505 126° Southeast 552 635 35,000  Level FlightAware ADS-B
09:39PM 30.2937 -94.9840 126° Southeast 552 635 35,000  Level FlightAware ADS-B
09:39PM 30.2892 -94.9769 126° Southeast 552 635 35,000  Level FlightAware ADS-B
09:40PM 30.2557 -94.9241 126° Southeast 552 635 35,000  Level FlightAware ADS-B
09:40PM 30.2366 -94.8972 129° Southeast 549 632 35,000  Level FlightAware ADS-B
09:40PM 30.2318 -94.8912 133° Southeast 548 631 35,000  Level FlightAware ADS-B
09:40PM 30.2258 -94.8841 134° Southeast 546 628 35,000  Level FlightAware ADS-B
09:40PM 30.2152 -94.8725 137° Southeast 543 625 35,000  Level FlightAware ADS-B
09:41PM 30.1677 -94.8268 140° Southeast 541 623 35,000  Level FlightAware ADS-B
09:41PM 30.1564 -94.8163 141° Southeast 541 623 35,000  Level FlightAware ADS-B
09:41PM 30.1092 -94.7716 141° Southeast 542 624 35,000  Level FlightAware ADS-B
09:41PM 30.0964 -94.7594 140° Southeast 542 624 35,000  Level FlightAware ADS-B
09:42PM 30.0510 -94.7162 141° Southeast 542 624 35,000  Level FlightAware ADS-B
09:42PM 30.0342 -94.7002 140° Southeast 542 624 35,000  Level FlightAware ADS-B
09:42PM 29.9927 -94.6608 141° Southeast 543 625 35,000  Level FlightAware ADS-B
09:42PM 29.9751 -94.6441 141° Southeast 543 625 35,000  Level FlightAware ADS-B
09:43PM 29.9319 -94.6031 141° Southeast 543 625 35,000  Level FlightAware ADS-B
09:43PM 29.9162 -94.5882 141° Southeast 543 625 35,000  Level FlightAware ADS-B
09:43PM 29.8727 -94.5470 141° Southeast 543 625 35,000  Level FlightAware ADS-B
09:43PM 29.8577 -94.5329 141° Southeast 544 626 35,000  Level FlightAware ADS-B
09:44PM 29.8139 -94.4916 141° Southeast 544 626 35,000  Level FlightAware ADS-B
09:44PM 29.7993 -94.4779 141° Southeast 544 626 35,000  Level FlightAware ADS-B
09:44PM 29.7539 -94.4351 141° Southeast 545 627 35,000  Level FlightAware ADS-B
09:44PM 29.7402 -94.4223 141° Southeast 545 627 35,000  Level FlightAware ADS-B
09:45PM 29.6957 -94.3793 140° Southeast 546 628 35,000  Level FlightAware ADS-B
09:45PM 29.6434 -94.3266 139° Southeast 547 629 35,000  Level FlightAware ADS-B
09:45PM 29.6386 -94.3218 139° Southeast 548 631 35,000  Level FlightAware ADS-B
09:46PM 29.5859 -94.2684 139° Southeast 548 631 35,000  Level FlightAware ADS-B
09:46PM 29.5813 -94.2638 139° Southeast 547 629 35,000  Level FlightAware ADS-B
09:46PM 29.5203 -94.2027 139° Southeast 547 629 35,000  Level FlightAware ADS-B
09:47PM 29.4626 -94.1453 139° Southeast 547 629 35,000  Level FlightAware ADS-B
09:47PM 29.3952 -94.0788 139° Southeast 546 628 35,000  Level FlightAware ADS-B
09:48PM 29.3237 -94.0083 139° Southeast 546 628 35,000  Level FlightAware ADS-B
09:48PM 29.2634 -93.9492 139° Southeast 545 627 35,000  Level FlightAware ADS-B
09:49PM 29.2055 -93.8923 139° Southeast 545 627 35,000  Level FlightAware ADS-B
09:49PM 29.1477 -93.8357 139° Southeast 545 627 35,000  Level FlightAware ADS-B
09:50PM 29.0841 -93.7735 139° Southeast 546 628 35,000  Level FlightAware ADS-B
09:51PM 29.0132 -93.7041 139° Southeast 547 629 35,000 -120 Level FlightAware ADS-B
09:52PM 28.9331 -93.6258 139° Southeast 544 626 34,900  Descending Houston Center
09:53PM 28.8172 -93.5122 139° Southeast 548 631 35,000  Climbing Houston Center
09:54PM 28.6775 -93.3769 140° Southeast 549 632 34,900  Descending Houston Center
09:55PM 28.5761 -93.2764 139° Southeast 547 629 35,000  Climbing Houston Center
09:56PM 28.4453 -93.1525 140° Southeast 549 632 35,000 -60 Level Houston Center
09:57PM 28.3294 -93.0389 139° Southeast 552 635 34,900 -60 Descending Houston Center
09:58PM 28.2128 -92.9278 140° Southeast 550 633 34,900  Level Houston Center
09:59PM 28.0958 -92.8164 140° Southeast 549 632 34,900  Level Houston Center
10:00PM 27.9794 -92.7047 140° Southeast 550 633 34,900  Level Houston Center
10:01PM 27.8611 -92.5958 141° Southeast 550 633 35,000  Climbing Houston Center
10:02PM 27.7436 -92.4853 140° Southeast 549 632 35,000  Level Houston Center
10:03PM 27.6278 -92.3733 139° Southeast 548 631 35,000 -60 Level Houston Center
10:04PM 27.4869 -92.2403 140° Southeast 550 633 34,900  Descending Houston Center
10:05PM 27.3694 -92.1331 141° Southeast 546 628 35,000  Climbing Houston Center
10:06PM 27.2522 -92.0219 140° Southeast 548 631 35,000  Level Houston Center
10:07PM 27.1333 -91.9147 141° Southeast 549 632 35,000  Level Houston Center
10:08PM 27.0103 -91.8150 144° Southeast 548 631 35,000  Level Houston Center
10:10PM 26.8304 -91.6694 144° Southeast  Level FlightAware Approximate
10:17PM 26.0568 -91.0524 145° Southeast  Level FlightAware Approximate
10:18PM 25.9458 -90.9654 145° Southeast  Level FlightAware Approximate
10:19PM 25.8347 -90.8785 145° Southeast  Level FlightAware Approximate
10:20PM 25.7236 -90.7918 145° Southeast  Level FlightAware Approximate
10:21PM 25.6124 -90.7053 145° Southeast  Level FlightAware Approximate
10:22PM 25.5012 -90.6189 145° Southeast  Level FlightAware Approximate
10:23PM 25.3899 -90.5327 145° Southeast  Level FlightAware Approximate
10:24PM 25.2786 -90.4466 145° Southeast  Level FlightAware Approximate
10:25PM 25.1672 -90.3607 145° Southeast  Level FlightAware Approximate
10:26PM 25.0558 -90.2749 145° Southeast  Level FlightAware Approximate
10:27PM 24.9443 -90.1893 145° Southeast  Level FlightAware Approximate
10:28PM 24.8328 -90.1039 145° Southeast  Level FlightAware Approximate
10:29PM 24.7213 -90.0186 145° Southeast  Level FlightAware Approximate
10:30PM 24.6098 -89.9336 145° Southeast  Level FlightAware Approximate
10:31PM 24.4986 -89.8485 138° Southeast  Level FlightAware Approximate
10:32PM 24.3877 -89.7632 146° Southeast  Level FlightAware Approximate
10:33PM 24.2749 -89.6807 146° Southeast  Level FlightAware Approximate
10:34PM 24.1621 -89.5983 146° Southeast  Level FlightAware Approximate
10:35PM 24.0492 -89.5160 145° Southeast  Level FlightAware Approximate
10:36PM 23.9388 -89.4300 145° Southeast  Level FlightAware Approximate
10:37PM 23.8283 -89.3441 145° Southeast  Level FlightAware Approximate
10:38PM 23.7174 -89.2590 146° Southeast  Level FlightAware Approximate
10:39PM 23.6054 -89.1755 146° Southeast  Level FlightAware Approximate
10:40PM 23.4934 -89.0922 146° Southeast  Level FlightAware Approximate
10:41PM 23.3814 -89.0090 146° Southeast  Level FlightAware Approximate
10:42PM 23.2693 -88.9259 146° Southeast  Level FlightAware Approximate
10:43PM 23.1573 -88.8429 145° Southeast  Level FlightAware Approximate
10:44PM 23.0462 -88.7583 145° Southeast  Level FlightAware Approximate
10:45PM 22.9351 -88.6740 145° Southeast  Level FlightAware Approximate
10:46PM 22.8240 -88.5897 145° Southeast  Level FlightAware Approximate
10:47PM 22.7128 -88.5056 145° Southeast  Level FlightAware Approximate
10:48PM 22.6100 -88.4102 137° Southeast  Level FlightAware Approximate
10:49PM 22.5102 -88.3109 137° Southeast  Level FlightAware Approximate
10:50PM 22.4103 -88.2118 137° Southeast  Level FlightAware Approximate
10:51PM 22.3104 -88.1127 137° Southeast  Level FlightAware Approximate
10:52PM 22.2103 -88.0138 138° Southeast  Level FlightAware Approximate
10:53PM 22.1103 -87.9151 138° Southeast  Level FlightAware Approximate
10:54PM 22.0102 -87.8165 138° Southeast  Level FlightAware Approximate
10:55PM 21.9100 -87.7180 138° Southeast  Level FlightAware Approximate
10:56PM 21.8097 -87.6197 138° Southeast  Level FlightAware Approximate
10:57PM 21.7094 -87.5215 138° Southeast  Level FlightAware Approximate
10:58PM 21.6091 -87.4234 138° Southeast  Level FlightAware Approximate
10:59PM 21.5086 -87.3255 138° Southeast  Level FlightAware Approximate
11:00PM 21.4080 -87.2279 138° Southeast  Level FlightAware Approximate
11:01PM 21.3074 -87.1304 138° Southeast  Level FlightAware Approximate
11:02PM 21.2066 -87.0331 138° Southeast  Level FlightAware Approximate
11:03PM 21.1059 -86.9359 138° Southeast  Level FlightAware Approximate
11:04PM 21.0048 -86.8391 139° Southeast  Level FlightAware Approximate
11:05PM 20.9022 -86.7442 139° Southeast  Level FlightAware Approximate
11:06PM 20.7995 -86.6495 137° Southeast  Level FlightAware Approximate
11:07PM 20.7006 -86.5504 137° Southeast  Level FlightAware Approximate
11:08PM 20.6015 -86.4515 137° Southeast  Level FlightAware Approximate
11:09PM 20.5016 -86.3537 138° Southeast  Level FlightAware Approximate
11:10PM 20.4014 -86.2562 138° Southeast  Level FlightAware Approximate
11:11PM 20.3012 -86.1588 138° Southeast  Level FlightAware Approximate
11:12PM 20.2010 -86.0616 138° Southeast  Level FlightAware Approximate
11:13PM 20.1006 -85.9645 138° Southeast  Level FlightAware Approximate
11:14PM 20.0001 -85.8677 138° Southeast  Level FlightAware Approximate
11:15PM 19.8987 -85.7719 138° Southeast  Level FlightAware Approximate
11:16PM 19.7973 -85.6763 138° Southeast  Level FlightAware Approximate
11:17PM 19.6958 -85.5808 138° Southeast  Level FlightAware Approximate
11:18PM 19.5943 -85.4855 138° Southeast  Level FlightAware Approximate
11:19PM 19.4927 -85.3902 139° Southeast  Level FlightAware Approximate
11:20PM 19.3911 -85.2951 139° Southeast  Level FlightAware Approximate
11:21PM 19.2894 -85.2001 139° Southeast  Level FlightAware Approximate
11:22PM 19.1876 -85.1052 139° Southeast  Level FlightAware Approximate
11:23PM 19.0859 -85.0104 139° Southeast  Level FlightAware Approximate
11:24PM 18.9840 -84.9157 139° Southeast  Level FlightAware Approximate
11:25PM 18.8822 -84.8212 139° Southeast  Level FlightAware Approximate
11:26PM 18.7802 -84.7268 139° Southeast  Level FlightAware Approximate
11:27PM 18.6782 -84.6325 139° Southeast  Level FlightAware Approximate
11:28PM 18.5762 -84.5383 139° Southeast  Level FlightAware Approximate
11:29PM 18.4729 -84.4458 141° Southeast  Level FlightAware Approximate
11:30PM 18.3683 -84.3548 139° Southeast  Level FlightAware Approximate
11:31PM 18.2653 -84.2620 139° Southeast  Level FlightAware Approximate
11:32PM 18.1622 -84.1693 139° Southeast  Level FlightAware Approximate
11:33PM 18.0591 -84.0768 140° Southeast  Level FlightAware Approximate
11:34PM 17.9559 -83.9843 140° Southeast  Level FlightAware Approximate
11:35PM 17.8527 -83.8919 140° Southeast  Level FlightAware Approximate
11:36PM 17.7494 -83.7997 140° Southeast  Level FlightAware Approximate
11:37PM 17.6461 -83.7076 140° Southeast  Level FlightAware Approximate
11:38PM 17.5428 -83.6155 140° Southeast  Level FlightAware Approximate
11:39PM 17.4394 -83.5236 140° Southeast  Level FlightAware Approximate
11:40PM 17.3360 -83.4318 140° Southeast  Level FlightAware Approximate
11:41PM 17.2325 -83.3401 140° Southeast  Level FlightAware Approximate
11:42PM 17.1290 -83.2484 140° Southeast  Level FlightAware Approximate
11:43PM 17.0254 -83.1569 140° Southeast  Level FlightAware Approximate
11:44PM 16.9218 -83.0655 140° Southeast  Level FlightAware Approximate
11:45PM 16.8182 -82.9742 140° Southeast  Level FlightAware Approximate
11:46PM 16.7145 -82.8830 140° Southeast  Level FlightAware Approximate
11:47PM 16.6108 -82.7919 140° Southeast  Level FlightAware Approximate
11:48PM 16.5070 -82.7009 140° Southeast  Level FlightAware Approximate
11:49PM 16.4032 -82.6099 140° Southeast  Level FlightAware Approximate
11:50PM 16.2994 -82.5191 140° Southeast  Level FlightAware Approximate
11:51PM 16.1955 -82.4284 140° Southeast  Level FlightAware Approximate
11:52PM 16.0916 -82.3378 140° Southeast  Level FlightAware Approximate
11:53PM 15.9876 -82.2472 140° Southeast  Level FlightAware Approximate
11:54PM 15.8839 -82.1565 140° Southeast  Level FlightAware Approximate
11:55PM 15.7804 -82.0655 140° Southeast  Level FlightAware Approximate
11:56PM 15.6769 -81.9746 140° Southeast  Level FlightAware Approximate
11:57PM 15.5733 -81.8838 140° Southeast  Level FlightAware Approximate
11:58PM 15.4695 -81.7929 140° Southeast  Level FlightAware Approximate
11:59PM 15.3656 -81.7021 140° Southeast  Level FlightAware Approximate
12:00AM 15.2618 -81.6114 140° Southeast  Level FlightAware Approximate
12:01AM 15.1579 -81.5208 140° Southeast  Level FlightAware Approximate
12:02AM 15.0539 -81.4302 140° Southeast  Level FlightAware Approximate
12:03AM 14.9497 -81.3401 140° Southeast  Level FlightAware Approximate
12:04AM 14.8452 -81.2504 140° Southeast  Level FlightAware Approximate
12:05AM 14.7406 -81.1608 140° Southeast  Level FlightAware Approximate
12:06AM 14.6360 -81.0712 140° Southeast  Level FlightAware Approximate
12:07AM 14.5314 -80.9818 140° Southeast  Level FlightAware Approximate
12:08AM 14.4267 -80.8924 140° Southeast  Level FlightAware Approximate
12:09AM 14.3220 -80.8031 140° Southeast  Level FlightAware Approximate
12:10AM 14.2172 -80.7139 140° Southeast  Level FlightAware Approximate
12:11AM 14.1125 -80.6248 140° Southeast  Level FlightAware Approximate
12:12AM 14.0077 -80.5358 140° Southeast  Level FlightAware Approximate
12:13AM 13.9028 -80.4468 141° Southeast  Level FlightAware Approximate
12:14AM 13.7979 -80.3579 141° Southeast  Level FlightAware Approximate
12:15AM 13.6931 -80.2691 141° Southeast  Level FlightAware Approximate
12:16AM 13.5881 -80.1804 141° Southeast  Level FlightAware Approximate
12:17AM 13.4832 -80.0918 141° Southeast  Level FlightAware Approximate
12:18AM 13.3782 -80.0032 141° Southeast  Level FlightAware Approximate
12:19AM 13.2731 -79.9147 141° Southeast  Level FlightAware Approximate
12:20AM 13.1681 -79.8263 141° Southeast  Level FlightAware Approximate
12:21AM 13.0630 -79.7380 141° Southeast  Level FlightAware Approximate
12:22AM 12.9579 -79.6497 141° Southeast  Level FlightAware Approximate
12:23AM 12.8527 -79.5615 141° Southeast  Level FlightAware Approximate
12:24AM 12.7475 -79.4734 141° Southeast  Level FlightAware Approximate
12:25AM 12.6423 -79.3854 141° Southeast  Level FlightAware Approximate
12:26AM 12.5371 -79.2974 141° Southeast  Level FlightAware Approximate
12:27AM 12.4319 -79.2096 141° Southeast  Level FlightAware Approximate
12:28AM 12.3266 -79.1217 141° Southeast  Level FlightAware Approximate
12:29AM 12.2212 -79.0340 141° Southeast  Level FlightAware Approximate
12:29AM 11.4420 -77.7910 141° Southeast 492 566 35,000  Level FlightAware
12:30AM 12.1159 -78.9463 141° Southeast  Level FlightAware Approximate
12:30AM 11.3570 -77.7240 142° Southeast 493 567 35,000  Level FlightAware
12:31AM 11.2800 -77.6630 142° Southeast 493 567 35,000  Level FlightAware
12:31AM 11.2190 -77.6140 142° Southeast 493 567 35,000  Level FlightAware
12:32AM 11.1580 -77.5660 142° Southeast 493 567 35,000  Level FlightAware
12:33AM 10.9900 -77.4410 144° Southeast 489 563 35,000  Level FlightAware
12:34AM 10.9130 -77.3740 139° Southeast 497 572 35,000  Level FlightAware
12:34AM 10.8550 -77.3190 137° Southeast 490 564 35,000  Level FlightAware
12:35AM 10.7730 -77.2440 138° Southeast 490 564 35,000  Level FlightAware
12:36AM 10.7080 -77.1800 136° Southeast 490 564 35,000  Level FlightAware
12:37AM 10.6520 -77.1260 137° Southeast 490 564 35,000  Level FlightAware
12:37AM 10.5970 -77.0710 135° Southeast 490 564 35,000  Level FlightAware
12:38AM 10.5410 -77.0170 137° Southeast 490 564 35,000  Level FlightAware
12:39AM 10.4140 -76.9090 140° Southeast 491 565 35,000  Level FlightAware
12:39AM 10.3540 -76.8530 137° Southeast 498 573 35,000  Level FlightAware
12:40AM 10.2690 -76.7740 138° Southeast 498 573 35,000  Level FlightAware
12:41AM 10.1580 -76.6710 138° Southeast 498 573 35,000  Level FlightAware
12:42AM 10.0500 -76.5710 138° Southeast 499 574 35,000  Level FlightAware
12:43AM 9.9260 -76.4560 138° Southeast 499 574 35,000  Level FlightAware
12:44AM 9.8390 -76.3750 137° Southeast 499 574 35,000  Level FlightAware
12:45AM 9.7570 -76.3010 138° Southeast 499 574 35,000  Level FlightAware
12:46AM 9.6540 -76.2050 137° Southeast 490 564 35,000  Level FlightAware
12:47AM 9.5940 -76.1470 136° Southeast 490 564 35,000  Level FlightAware
12:48AM 9.5240 -76.0790 136° Southeast 490 564 35,000  Level FlightAware
12:48AM 9.4690 -76.0250 136° Southeast 490 564 35,000  Level FlightAware
12:49AM 9.4130 -75.9710 136° Southeast 490 564 35,000  Level FlightAware
12:50AM 9.3580 -75.9160 135° Southeast 490 564 35,000  Level FlightAware
12:50AM 9.3030 -75.8620 136° Southeast 490 564 35,000  Level FlightAware
12:51AM 9.2330 -75.7940 136° Southeast 490 564 35,000  Level FlightAware
12:52AM 9.1780 -75.7400 136° Southeast 490 564 35,000  Level FlightAware
12:52AM 9.1220 -75.6860 136° Southeast 490 564 35,000  Level FlightAware
12:53AM 9.0670 -75.6320 136° Southeast 490 564 35,000  Level FlightAware
12:54AM 9.0110 -75.5770 136° Southeast 490 564 35,000  Level FlightAware
12:55AM 8.9420 -75.5100 136° Southeast 490 564 35,000  Level FlightAware
12:55AM 8.8870 -75.4550 135° Southeast 490 564 35,000  Level FlightAware
12:56AM 8.8310 -75.4010 136° Southeast 490 564 35,000  Level FlightAware
12:58AM 8.6590 -75.2515 139° Southeast  Level Estimated
12:59AM 8.5558 -75.1618 139° Southeast  Level Estimated
01:00AM 8.4526 -75.0722 139° Southeast  Level Estimated
01:01AM 8.3493 -74.9826 139° Southeast  Level Estimated
01:02AM 8.2461 -74.8931 139° Southeast  Level Estimated
01:03AM 8.1428 -74.8036 139° Southeast  Level Estimated
01:04AM 8.0395 -74.7142 139° Southeast  Level Estimated
01:05AM 7.9361 -74.6248 139° Southeast  Level Estimated
01:06AM 7.8328 -74.5355 139° Southeast  Level Estimated
01:07AM 7.7294 -74.4462 139° Southeast  Level Estimated
01:08AM 7.6260 -74.3570 139° Southeast  Level Estimated
01:09AM 7.5226 -74.2678 139° Southeast  Level Estimated
01:10AM 7.4192 -74.1786 139° Southeast  Level Estimated
01:11AM 7.3158 -74.0895 139° Southeast  Level Estimated
01:12AM 7.2123 -74.0004 139° Southeast  Level Estimated
01:13AM 7.1088 -73.9114 140° Southeast  Level Estimated
01:14AM 7.0054 -73.8224 140° Southeast  Level Estimated
01:15AM 6.9018 -73.7334 140° Southeast  Level Estimated
01:16AM 6.7983 -73.6445 140° Southeast  Level Estimated
01:17AM 6.6948 -73.5556 140° Southeast  Level Estimated
01:18AM 6.5912 -73.4668 140° Southeast  Level Estimated
01:19AM 6.4876 -73.3780 140° Southeast  Level Estimated
01:20AM 6.3841 -73.2892 140° Southeast  Level Estimated
01:21AM 6.2805 -73.2005 140° Southeast  Level Estimated
01:22AM 6.1768 -73.1118 140° Southeast  Level Estimated
01:23AM 6.0732 -73.0231 140° Southeast  Level Estimated
01:24AM 5.9696 -72.9345 140° Southeast  Level Estimated
01:25AM 5.8659 -72.8459 140° Southeast  Level Estimated
01:26AM 5.7622 -72.7573 140° Southeast  Level Estimated
01:27AM 5.6585 -72.6688 140° Southeast  Level Estimated
01:28AM 5.5548 -72.5803 140° Southeast  Level Estimated
01:29AM 5.4511 -72.4918 140° Southeast  Level Estimated
01:30AM 5.3474 -72.4034 140° Southeast  Level Estimated
01:31AM 5.2436 -72.3150 140° Southeast  Level Estimated
01:32AM 5.1399 -72.2266 140° Southeast  Level Estimated
01:33AM 5.0361 -72.1383 140° Southeast  Level Estimated
01:34AM 4.9323 -72.0500 140° Southeast  Level Estimated
01:35AM 4.8285 -71.9617 140° Southeast  Level Estimated
01:36AM 4.7248 -71.8734 140° Southeast  Level Estimated
01:37AM 4.6209 -71.7852 140° Southeast  Level Estimated
01:38AM 4.5171 -71.6970 140° Southeast  Level Estimated
01:39AM 4.4133 -71.6088 140° Southeast  Level Estimated
01:40AM 4.3095 -71.5206 140° Southeast  Level Estimated
01:41AM 4.2056 -71.4325 140° Southeast  Level Estimated
01:42AM 4.1017 -71.3444 140° Southeast  Level Estimated
01:43AM 3.9979 -71.2563 140° Southeast  Level Estimated
01:44AM 3.8940 -71.1682 140° Southeast  Level Estimated
01:45AM 3.7903 -71.0803 140° Southeast  Level Estimated
01:46AM 3.6866 -70.9924 140° Southeast  Level Estimated
01:47AM 3.5829 -70.9046 140° Southeast  Level Estimated
01:48AM 3.4791 -70.8168 140° Southeast  Level Estimated
01:49AM 3.3754 -70.7290 140° Southeast  Level Estimated
01:50AM 3.2717 -70.6412 140° Southeast  Level Estimated
01:51AM 3.1679 -70.5534 140° Southeast  Level Estimated
01:52AM 3.0641 -70.4656 140° Southeast  Level Estimated
01:53AM 2.9604 -70.3779 140° Southeast  Level Estimated
01:54AM 2.8566 -70.2902 140° Southeast  Level Estimated
01:55AM 2.7528 -70.2025 140° Southeast  Level Estimated
01:56AM 2.6490 -70.1148 140° Southeast  Level Estimated
01:57AM 2.5452 -70.0271 140° Southeast  Level Estimated
01:58AM 2.4414 -69.9395 140° Southeast  Level Estimated
01:59AM 2.3376 -69.8518 140° Southeast  Level Estimated
02:00AM 2.2338 -69.7642 140° Southeast  Level Estimated
02:01AM 2.1300 -69.6766 140° Southeast  Level Estimated
02:02AM 2.0262 -69.5890 140° Southeast  Level Estimated
02:03AM 1.9224 -69.5014 140° Southeast  Level Estimated
02:04AM 1.8185 -69.4138 140° Southeast  Level Estimated
02:05AM 1.7147 -69.3262 140° Southeast  Level Estimated
02:06AM 1.6109 -69.2386 140° Southeast  Level Estimated
02:07AM 1.5070 -69.1511 140° Southeast  Level Estimated
02:08AM 1.4032 -69.0635 140° Southeast  Level Estimated
02:09AM 1.2993 -68.9760 140° Southeast  Level Estimated
02:10AM 1.1955 -68.8885 140° Southeast  Level Estimated
02:11AM 1.0916 -68.8009 140° Southeast  Level Estimated
02:12AM 0.9878 -68.7134 140° Southeast  Level Estimated
02:13AM 0.8839 -68.6259 140° Southeast  Level Estimated
02:14AM 0.7800 -68.5384 140° Southeast  Level Estimated
02:15AM 0.6762 -68.4509 140° Southeast  Level Estimated
02:16AM 0.5723 -68.3634 140° Southeast  Level Estimated
02:17AM 0.4685 -68.2759 140° Southeast  Level Estimated
02:18AM 0.3646 -68.1884 140° Southeast  Level Estimated
02:19AM 0.2607 -68.1009 140° Southeast  Level Estimated
02:20AM 0.1568 -68.0134 140° Southeast  Level Estimated
02:21AM 0.0530 -67.9259 140° Southeast  Level Estimated
02:22AM -0.0509 -67.8384 140° Southeast  Level Estimated
02:23AM -0.1548 -67.7509 140° Southeast  Level Estimated
02:24AM -0.2586 -67.6634 140° Southeast  Level Estimated
02:25AM -0.3625 -67.5759 140° Southeast  Level Estimated
02:26AM -0.4664 -67.4884 140° Southeast  Level Estimated
02:27AM -0.5702 -67.4009 140° Southeast  Level Estimated
02:28AM -0.6741 -67.3134 140° Southeast  Level Estimated
02:29AM -0.7780 -67.2259 140° Southeast  Level Estimated
02:30AM -0.8818 -67.1384 140° Southeast  Level Estimated
02:31AM -0.9857 -67.0509 140° Southeast  Level Estimated
02:32AM -1.0896 -66.9634 140° Southeast  Level Estimated
02:33AM -1.1934 -66.8758 140° Southeast  Level Estimated
02:34AM -1.2973 -66.7883 140° Southeast  Level Estimated
02:35AM -1.4011 -66.7008 140° Southeast  Level Estimated
02:36AM -1.5050 -66.6132 140° Southeast  Level Estimated
02:37AM -1.6088 -66.5257 140° Southeast  Level Estimated
02:38AM -1.7126 -66.4381 140° Southeast  Level Estimated
02:39AM -1.8165 -66.3505 140° Southeast  Level Estimated
02:40AM -1.9203 -66.2629 140° Southeast  Level Estimated
02:41AM -2.0241 -66.1753 140° Southeast  Level Estimated
02:42AM -2.1279 -66.0877 140° Southeast  Level Estimated
02:43AM -2.2318 -66.0001 140° Southeast  Level Estimated
02:44AM -2.3356 -65.9125 140° Southeast  Level Estimated
02:45AM -2.4394 -65.8248 140° Southeast  Level Estimated
02:46AM -2.5432 -65.7372 140° Southeast  Level Estimated
02:47AM -2.6470 -65.6495 140° Southeast  Level Estimated
02:48AM -2.7508 -65.5618 140° Southeast  Level Estimated
02:49AM -2.8545 -65.4741 140° Southeast  Level Estimated
02:50AM -2.9583 -65.3864 140° Southeast  Level Estimated
02:51AM -3.0621 -65.2987 140° Southeast  Level Estimated
02:52AM -3.1658 -65.2109 140° Southeast  Level Estimated
02:53AM -3.2696 -65.1231 140° Southeast  Level Estimated
02:54AM -3.3733 -65.0353 140° Southeast  Level Estimated
02:55AM -3.4771 -64.9475 140° Southeast  Level Estimated
02:56AM -3.5808 -64.8597 140° Southeast  Level Estimated
02:57AM -3.6845 -64.7719 140° Southeast  Level Estimated
02:58AM -3.7882 -64.6840 140° Southeast  Level Estimated
02:59AM -3.8919 -64.5961 140° Southeast  Level Estimated
03:00AM -3.9956 -64.5082 140° Southeast  Level Estimated
03:01AM -4.0993 -64.4203 140° Southeast  Level Estimated
03:02AM -4.2030 -64.3323 140° Southeast  Level Estimated
03:03AM -4.3066 -64.2443 140° Southeast  Level Estimated
03:04AM -4.4103 -64.1563 140° Southeast  Level Estimated
03:05AM -4.5139 -64.0683 140° Southeast  Level Estimated
03:06AM -4.6176 -63.9803 140° Southeast  Level Estimated
03:07AM -4.7212 -63.8922 140° Southeast  Level Estimated
03:08AM -4.8248 -63.8041 140° Southeast  Level Estimated
03:09AM -4.9284 -63.7160 140° Southeast  Level Estimated
03:10AM -5.0320 -63.6278 140° Southeast  Level Estimated
03:11AM -5.1356 -63.5396 140° Southeast  Level Estimated
03:12AM -5.2391 -63.4514 140° Southeast  Level Estimated
03:13AM -5.3427 -63.3632 140° Southeast  Level Estimated
03:14AM -5.4462 -63.2749 140° Southeast  Level Estimated
03:15AM -5.5497 -63.1866 140° Southeast  Level Estimated
03:16AM -5.6533 -63.0983 140° Southeast  Level Estimated
03:17AM -5.7568 -63.0099 140° Southeast  Level Estimated
03:18AM -5.8602 -62.9215 140° Southeast  Level Estimated
03:19AM -5.9637 -62.8331 140° Southeast  Level Estimated
03:20AM -6.0672 -62.7446 140° Southeast  Level Estimated
03:21AM -6.1706 -62.6561 140° Southeast  Level Estimated
03:22AM -6.2741 -62.5676 140° Southeast  Level Estimated
03:23AM -6.3775 -62.4790 140° Southeast  Level Estimated
03:24AM -6.4809 -62.3904 140° Southeast  Level Estimated
03:25AM -6.5842 -62.3018 140° Southeast  Level Estimated
03:26AM -6.6876 -62.2131 140° Southeast  Level Estimated
03:27AM -6.7910 -62.1244 140° Southeast  Level Estimated
03:28AM -6.8943 -62.0356 140° Southeast  Level Estimated
03:29AM -6.9976 -61.9468 140° Southeast  Level Estimated
03:30AM -7.1009 -61.8580 140° Southeast  Level Estimated
03:31AM -7.2042 -61.7691 140° Southeast  Level Estimated
03:32AM -7.3075 -61.6802 140° Southeast  Level Estimated
03:33AM -7.4107 -61.5913 139° Southeast  Level Estimated
03:34AM -7.5140 -61.5023 139° Southeast  Level Estimated
03:35AM -7.6172 -61.4133 139° Southeast  Level Estimated
03:36AM -7.7204 -61.3242 139° Southeast  Level Estimated
03:37AM -7.8236 -61.2351 139° Southeast  Level Estimated
03:38AM -7.9267 -61.1459 139° Southeast  Level Estimated
03:39AM -8.0299 -61.0567 139° Southeast  Level Estimated
03:40AM -8.1330 -60.9674 139° Southeast  Level Estimated
03:41AM -8.2361 -60.8781 139° Southeast  Level Estimated
03:42AM -8.3392 -60.7888 139° Southeast  Level Estimated
03:43AM -8.4422 -60.6994 139° Southeast  Level Estimated
03:44AM -8.5455 -60.6098 139° Southeast  Level Estimated
03:45AM -8.6487 -60.5201 139° Southeast  Level Estimated
03:46AM -8.7519 -60.4304 139° Southeast  Level Estimated
03:47AM -8.8550 -60.3407 139° Southeast  Level Estimated
03:48AM -8.9582 -60.2509 139° Southeast  Level Estimated
03:49AM -9.0613 -60.1610 139° Southeast  Level Estimated
03:50AM -9.1644 -60.0711 139° Southeast  Level Estimated
03:51AM -9.2675 -59.9811 139° Southeast  Level Estimated
03:52AM -9.3706 -59.8911 139° Southeast  Level Estimated
03:53AM -9.4736 -59.8010 139° Southeast  Level Estimated
03:54AM -9.5766 -59.7109 139° Southeast  Level Estimated
03:55AM -9.6796 -59.6208 139° Southeast  Level Estimated
03:56AM -9.7826 -59.5305 139° Southeast  Level Estimated
03:57AM -9.8855 -59.4402 139° Southeast  Level Estimated
03:58AM -9.9884 -59.3499 139° Southeast  Level Estimated
03:59AM -10.0913 -59.2595 139° Southeast  Level Estimated
04:00AM -10.1942 -59.1690 139° Southeast  Level Estimated
04:01AM -10.2971 -59.0785 139° Southeast  Level Estimated
04:02AM -10.3999 -58.9880 139° Southeast  Level Estimated
04:03AM -10.5027 -58.8973 139° Southeast  Level Estimated
04:04AM -10.6054 -58.8066 139° Southeast  Level Estimated
04:05AM -10.7082 -58.7159 139° Southeast  Level Estimated
04:06AM -10.8109 -58.6251 139° Southeast  Level Estimated
04:07AM -10.9136 -58.5342 139° Southeast  Level Estimated
04:08AM -11.0162 -58.4432 139° Southeast  Level Estimated
04:09AM -11.1189 -58.3522 139° Southeast  Level Estimated
04:10AM -11.2215 -58.2612 139° Southeast  Level Estimated
04:11AM -11.3241 -58.1700 139° Southeast  Level Estimated
04:12AM -11.4266 -58.0788 139° Southeast  Level Estimated
04:13AM -11.5292 -57.9876 139° Southeast  Level Estimated
04:14AM -11.6317 -57.8962 139° Southeast  Level Estimated
04:15AM -11.7341 -57.8048 139° Southeast  Level Estimated
04:16AM -11.8366 -57.7134 139° Southeast  Level Estimated
04:17AM -11.9390 -57.6218 139° Southeast  Level Estimated
04:18AM -12.0414 -57.5302 139° Southeast  Level Estimated
04:19AM -12.1437 -57.4385 139° Southeast  Level Estimated
04:20AM -12.2460 -57.3468 139° Southeast  Level Estimated
04:21AM -12.3483 -57.2550 139° Southeast  Level Estimated
04:22AM -12.4506 -57.1631 139° Southeast  Level Estimated
04:23AM -12.5528 -57.0711 139° Southeast  Level Estimated
04:24AM -12.6550 -56.9791 139° Southeast  Level Estimated
04:25AM -12.7572 -56.8870 139° Southeast  Level Estimated
04:26AM -12.8593 -56.7948 139° Southeast  Level Estimated
04:27AM -12.9614 -56.7025 139° Southeast  Level Estimated
04:28AM -13.0635 -56.6102 139° Southeast  Level Estimated
04:29AM -13.1655 -56.5178 139° Southeast  Level Estimated
04:30AM -13.2675 -56.4253 139° Southeast  Level Estimated
04:31AM -13.3695 -56.3328 139° Southeast  Level Estimated
04:32AM -13.4714 -56.2401 139° Southeast  Level Estimated
04:33AM -13.5733 -56.1474 139° Southeast  Level Estimated
04:34AM -13.6752 -56.0546 138° Southeast  Level Estimated
04:35AM -13.7770 -55.9617 138° Southeast  Level Estimated
04:36AM -13.8788 -55.8688 138° Southeast  Level Estimated
04:37AM -13.9806 -55.7757 138° Southeast  Level Estimated
04:38AM -14.0823 -55.6826 138° Southeast  Level Estimated
04:39AM -14.1840 -55.5894 138° Southeast  Level Estimated
04:40AM -14.2857 -55.4961 138° Southeast  Level Estimated
04:41AM -14.3873 -55.4027 138° Southeast  Level Estimated
04:42AM -14.4889 -55.3092 138° Southeast  Level Estimated
04:43AM -14.5904 -55.2157 138° Southeast  Level Estimated
04:44AM -14.6919 -55.1221 138° Southeast  Level Estimated
04:45AM -14.7934 -55.0284 138° Southeast  Level Estimated
04:46AM -14.8948 -54.9345 138° Southeast  Level Estimated
04:47AM -14.9962 -54.8406 138° Southeast  Level Estimated
04:48AM -15.0976 -54.7467 138° Southeast  Level Estimated
04:49AM -15.1989 -54.6526 138° Southeast  Level Estimated
04:50AM -15.3002 -54.5584 138° Southeast  Level Estimated
04:51AM -15.4014 -54.4641 138° Southeast  Level Estimated
04:52AM -15.5026 -54.3698 138° Southeast  Level Estimated
04:53AM -15.6038 -54.2753 138° Southeast  Level Estimated
04:54AM -15.7049 -54.1808 138° Southeast  Level Estimated
04:55AM -15.8060 -54.0862 138° Southeast  Level Estimated
04:56AM -15.9070 -53.9915 138° Southeast  Level Estimated
04:57AM -16.0080 -53.8966 138° Southeast  Level Estimated
04:58AM -16.1090 -53.8017 138° Southeast  Level Estimated
04:59AM -16.2099 -53.7067 138° Southeast  Level Estimated
05:00AM -16.3107 -53.6116 138° Southeast  Level Estimated
05:01AM -16.4116 -53.5164 138° Southeast  Level Estimated
05:02AM -16.5124 -53.4211 138° Southeast  Level Estimated
05:03AM -16.6131 -53.3257 138° Southeast  Level Estimated
05:04AM -16.7138 -53.2302 138° Southeast  Level Estimated
05:05AM -16.8144 -53.1346 138° Southeast  Level Estimated
05:06AM -16.9151 -53.0389 138° Southeast  Level Estimated
05:07AM -17.0156 -52.9431 138° Southeast  Level Estimated
05:08AM -17.1161 -52.8472 138° Southeast  Level Estimated
05:09AM -17.2166 -52.7511 138° Southeast  Level Estimated
05:10AM -17.3170 -52.6550 138° Southeast  Level Estimated
05:11AM -17.4174 -52.5588 138° Southeast  Level Estimated
05:12AM -17.5177 -52.4625 138° Southeast  Level Estimated
05:13AM -17.6180 -52.3660 138° Southeast  Level Estimated
05:14AM -17.7183 -52.2695 137° Southeast  Level Estimated
05:15AM -17.8185 -52.1729 137° Southeast  Level Estimated
05:16AM -17.9186 -52.0761 137° Southeast  Level Estimated
05:17AM -18.0187 -51.9792 137° Southeast  Level Estimated
05:18AM -18.1188 -51.8822 137° Southeast  Level Estimated
05:19AM -18.2188 -51.7851 137° Southeast  Level Estimated
05:20AM -18.3187 -51.6880 137° Southeast  Level Estimated
05:21AM -18.4186 -51.5906 137° Southeast  Level Estimated
05:22AM -18.5185 -51.4932 137° Southeast  Level Estimated
05:23AM -18.6183 -51.3957 137° Southeast  Level Estimated
05:24AM -18.7181 -51.2980 137° Southeast  Level Estimated
05:25AM -18.8178 -51.2002 137° Southeast  Level Estimated
05:26AM -18.9174 -51.1023 137° Southeast  Level Estimated
05:27AM -19.0170 -51.0043 137° Southeast  Level Estimated
05:27AM -19.3610 -50.2760 137° Southeast 534 615 35,000  Level FlightAware
05:28AM -19.1166 -50.9062 137° Southeast  Level Estimated
05:28AM -19.4340 -50.1950 134° Southeast 534 615 35,000  Level FlightAware
05:29AM -19.5080 -50.1130 134° Southeast 533 613 35,000  Level FlightAware
05:30AM -19.6030 -50.0090 134° Southeast 532 612 35,000  Level FlightAware
05:31AM -19.6820 -49.9230 134° Southeast 531 611 35,000  Level FlightAware
05:31AM -19.7490 -49.8500 134° Southeast 531 611 35,000  Level FlightAware
05:32AM -19.8250 -49.7660 134° Southeast 531 611 35,000  Level FlightAware
05:33AM -19.8950 -49.6900 134° Southeast 531 611 35,000  Level FlightAware
05:33AM -19.9640 -49.6140 134° Southeast 531 611 35,000  Level FlightAware
05:34AM -20.0400 -49.5310 134° Southeast 530 610 35,000  Level FlightAware
05:35AM -20.1120 -49.4510 134° Southeast 530 610 35,000  Level FlightAware
05:35AM -20.1880 -49.3680 134° Southeast 531 611 35,000  Level FlightAware
05:36AM -20.2430 -49.3080 134° Southeast 531 611 35,000  Level FlightAware
05:37AM -20.3180 -49.2250 134° Southeast 531 611 35,000  Level FlightAware
05:37AM -20.3920 -49.1420 134° Southeast 530 610 35,000  Level FlightAware
05:38AM -20.4610 -49.0670 134° Southeast 530 610 35,000  Level FlightAware
05:39AM -20.5390 -48.9800 134° Southeast 531 611 35,000  Level FlightAware
05:40AM -20.6040 -48.9070 134° Southeast 531 611 35,000  Level FlightAware
05:40AM -20.6750 -48.8290 134° Southeast 529 609 35,000  Level FlightAware
05:41AM -20.7510 -48.7440 134° Southeast 529 609 35,000  Level FlightAware
05:42AM -20.8190 -48.6680 134° Southeast 529 609 35,000  Level FlightAware
05:42AM -20.8930 -48.5840 133° Southeast 530 610 35,000  Level FlightAware
05:43AM -20.9590 -48.5100 134° Southeast 530 610 35,000  Level FlightAware
05:44AM -21.0390 -48.4200 134° Southeast 531 611 35,000  Level FlightAware
05:44AM -21.1070 -48.3430 133° Southeast 531 611 35,000  Level FlightAware
05:45AM -21.1710 -48.2710 134° Southeast 531 611 35,000  Level FlightAware
05:46AM -21.2490 -48.1830 134° Southeast 531 611 35,000  Level FlightAware
05:47AM -21.3160 -48.1070 133° Southeast 531 611 35,000  Level FlightAware
05:47AM -21.3670 -48.0490 133° Southeast 530 610 35,000  Level FlightAware
05:48AM -21.4340 -47.9730 133° Southeast 528 608 35,000  Level FlightAware
05:48AM -21.5120 -47.8850 134° Southeast 527 606 35,000  Level FlightAware
05:49AM -21.5790 -47.8090 133° Southeast 526 605 35,000  Level FlightAware
05:50AM -21.6450 -47.7340 133° Southeast 526 605 35,000  Level FlightAware
05:51AM -21.7200 -47.6490 134° Southeast 526 605 35,000  Level FlightAware
05:51AM -21.7850 -47.5740 133° Southeast 526 605 35,000 -540 Level FlightAware
05:52AM -21.8610 -47.4860 133° Southeast 515 593 34,300 -1,800 Descending FlightAware
05:53AM -21.9260 -47.4120 133° Southeast 510 587 32,500 -1,680 Descending FlightAware
05:53AM -21.9920 -47.3490 138° Southeast 473 544 32,100 -780 Descending FlightAware
05:54AM -22.0780 -47.3060 155° Southeast 431 496 31,400 -1,680 Descending FlightAware
05:55AM -22.1510 -47.2760 159° South 412 474 29,800 -2,520 Descending FlightAware
05:55AM -22.2120 -47.2510 159° South 400 460 28,300 -2,280 Descending FlightAware
05:56AM -22.2630 -47.2300 159° South 392 451 27,000 -1,920 Descending FlightAware
05:57AM -22.3390 -47.1990 159° South 385 443 25,600 -1,680 Descending FlightAware
05:58AM -22.4180 -47.1650 158° South 376 433 24,400 -1,740 Descending FlightAware
05:58AM -22.4780 -47.1400 159° South 369 425 23,200 -1,980 Descending FlightAware
05:59AM -22.5550 -47.1070 158° South 360 414 21,600 -1,500 Descending FlightAware
06:00AM -22.6160 -47.0810 159° South 331 381 21,000 -1,380 Descending FlightAware
06:00AM -22.6680 -47.0590 159° South 310 357 19,800 -2,220 Descending FlightAware
06:01AM -22.7320 -47.0330 159° South 304 350 17,900 -2,280 Descending FlightAware
06:02AM -22.7690 -47.0170 158° South 291 335 17,000 -1,920 Descending FlightAware
06:02AM -22.8350 -46.9890 159° South 287 330 15,200 -1,440 Descending FlightAware
06:03AM -22.8860 -46.9680 159° South 284 327 14,900 -900 Descending FlightAware
06:04AM -22.9360 -46.9470 159° South 284 327 14,000 -1,140 Descending FlightAware
06:04AM -22.9840 -46.9270 159° South 276 318 13,300 -1,140 Descending FlightAware
06:05AM -23.0320 -46.9070 159° South 270 311 12,500 -1,200 Descending FlightAware
06:06AM -23.0800 -46.8860 158° South 268 308 11,700 -1,320 Descending FlightAware
06:07AM -23.1360 -46.8630 159° South 260 299 10,600 -1,200 Descending FlightAware
06:07AM -23.1710 -46.8480 158° South 260 299 10,000 -1,200 Descending FlightAware
06:08AM -23.2140 -46.8300 159° South 258 297 9,200 -1,440 Descending FlightAware
06:08AM -23.2430 -46.8180 159° South 261 300 8,600 -1,380 Descending FlightAware
06:08AM -23.2570 -46.8120 159° South 261 300 8,300 -1,080 Descending FlightAware
06:09AM -23.2870 -46.7990 158° South 255 293 7,900 -600 Descending FlightAware
06:09AM -23.3220 -46.7840 159° South 230 265 7,700 -660 Descending FlightAware
06:10AM -23.3460 -46.7740 159° South 227 261 7,300 -840 Descending FlightAware
06:10AM -23.3690 -46.7650 160° South 212 244 7,100 -360 Descending FlightAware
06:11AM -23.3930 -46.7590 167° South 207 238 7,000 -120 Descending FlightAware
06:11AM -23.4270 -46.7480 163° South 211 243 7,000 -420 Level FlightAware
06:12AM -23.4470 -46.7340 147° Southeast 205 236 6,600 -900 Descending FlightAware
06:12AM -23.4700 -46.7160 144° Southeast 193 222 6,200 -660 Descending FlightAware
06:13AM -23.4850 -46.7020 139° Southeast 177 204 6,000 -780 Descending FlightAware
06:13AM -23.4870 -46.6670 94° East 149 171 5,300 -1,020 Descending FlightAware
06:14AM -23.4840 -46.6550 75° East 151 174 5,000 -900 Descending FlightAware
06:14AM -23.4790 -46.6350 75° East 151 174 4,700 -600 Descending FlightAware
06:15AM -23.4730 -46.6130 73° East 152 175 4,500 -600 Descending FlightAware
06:15AM -23.4680 -46.5930 75° East 159 183 4,100 -840 Descending FlightAware
06:15AM -23.4630 -46.5760 72° East 143 165 3,800 -900 Descending FlightAware
06:16AM -23.4560 -46.5520 72° East 134 154 3,300 -840 Descending FlightAware
06:16AM -23.4520 -46.5370 74° East 141 162 3,000 -600 Descending FlightAware
06:17AM -23.4490 -46.5240 76° East 137 158 2,800 -600 Descending FlightAware
06:17AM -23.4430 -46.5020 73° East 139 160 2,400 -540 Descending FlightAware
06:18AM -23.4420 -46.4990 70° East 139 160 2,400 -180 Level FlightAware
06:18AM -23.4360 -46.4780 73° East 140 161 2,300 -240 Descending FlightAware